createdAt,value
2023-02-14T00:01:12.927Z,100.00
2023-02-14T00:03:40.180Z,100.00
2023-02-14T00:06:09.087Z,100.00
2023-02-14T00:08:36.922Z,100.00
2023-02-14T00:11:05.695Z,100.00
2023-02-14T00:13:32.686Z,100.00
2023-02-14T00:15:59.783Z,100.00
2023-02-14T00:18:46.792Z,100.00
2023-02-14T00:21:13.770Z,100.00
2023-02-14T00:23:41.017Z,100.00
2023-02-14T00:26:14.777Z,100.00
2023-02-14T00:28:45.079Z,100.00
2023-02-14T00:31:12.322Z,100.00
2023-02-14T00:33:39.369Z,100.00
2023-02-14T00:36:07.606Z,100.00
2023-02-14T00:38:34.972Z,100.00
2023-02-14T00:41:02.480Z,100.00
2023-02-14T00:43:29.639Z,100.00
2023-02-14T00:45:56.697Z,100.00
2023-02-14T00:48:23.602Z,100.00
2023-02-14T00:50:50.609Z,100.00
2023-02-14T00:53:17.604Z,100.00
2023-02-14T00:55:47.407Z,100.00
2023-02-14T00:58:14.422Z,100.00
2023-02-14T01:00:41.379Z,100.00
2023-02-14T01:03:08.480Z,100.00
2023-02-14T01:05:35.405Z,100.00
2023-02-14T01:08:02.376Z,100.00
2023-02-14T01:10:29.536Z,100.00
2023-02-14T01:12:56.606Z,100.00
2023-02-14T01:15:23.631Z,100.00
2023-02-14T01:17:50.427Z,100.00
2023-02-14T01:20:17.390Z,100.00
2023-02-14T01:22:44.488Z,100.00
2023-02-14T01:25:11.605Z,100.00
2023-02-14T01:27:38.491Z,100.00
2023-02-14T01:30:06.250Z,100.00
2023-02-14T01:32:34.333Z,100.00
2023-02-14T01:35:01.367Z,100.00
2023-02-14T01:37:29.700Z,100.00
2023-02-14T01:39:56.489Z,100.00
2023-02-14T01:42:23.331Z,100.00
2023-02-14T01:44:50.232Z,100.00
2023-02-14T01:47:17.883Z,100.00
2023-02-14T01:49:52.074Z,100.00
2023-02-14T01:52:31.770Z,100.00
2023-02-14T01:55:02.722Z,100.00
2023-02-14T01:57:36.865Z,100.00
2023-02-14T02:00:24.073Z,100.00
2023-02-14T02:02:51.383Z,100.00
2023-02-14T02:05:23.928Z,100.00
2023-02-14T02:07:53.213Z,100.00
2023-02-14T02:10:20.353Z,100.00
2023-02-14T02:12:49.540Z,100.00
2023-02-14T02:15:16.708Z,100.00
2023-02-14T02:17:49.804Z,100.00
2023-02-14T02:20:34.152Z,100.00
2023-02-14T02:23:26.615Z,100.00
2023-02-14T02:26:04.452Z,100.00
2023-02-14T02:28:40.130Z,100.00
2023-02-14T02:31:26.216Z,100.00
2023-02-14T02:34:34.591Z,100.00
2023-02-14T02:37:13.713Z,100.00
2023-02-14T02:40:06.327Z,100.00
2023-02-14T02:43:10.507Z,100.00
2023-02-14T02:46:14.985Z,100.00
2023-02-14T02:48:53.845Z,100.00
2023-02-14T02:51:52.260Z,100.00
2023-02-14T02:54:50.329Z,100.00
2023-02-14T02:57:26.613Z,100.00
2023-02-14T02:59:56.356Z,100.00
2023-02-14T03:02:33.717Z,100.00
2023-02-14T03:05:05.775Z,100.00
2023-02-14T03:07:37.063Z,100.00
2023-02-14T03:10:16.595Z,100.00
2023-02-14T03:12:57.804Z,100.00
2023-02-14T03:15:39.781Z,100.00
2023-02-14T03:18:25.027Z,100.00
2023-02-14T03:21:29.298Z,100.00
2023-02-14T03:24:15.218Z,100.00
2023-02-14T03:26:53.665Z,100.00
2023-02-14T03:29:29.796Z,100.00
2023-02-14T03:32:21.172Z,100.00
2023-02-14T03:35:01.844Z,100.00
2023-02-14T03:37:48.287Z,100.00
2023-02-14T03:40:21.102Z,100.00
2023-02-14T03:43:03.214Z,100.00
2023-02-14T03:45:34.859Z,100.00
2023-02-14T03:48:07.997Z,100.00
2023-02-14T03:50:39.014Z,100.00
2023-02-14T03:53:09.747Z,100.00
2023-02-14T03:55:55.428Z,100.00
2023-02-14T03:58:30.025Z,100.00
2023-02-14T04:01:04.658Z,100.00
2023-02-14T04:03:33.541Z,100.00
2023-02-14T04:06:01.005Z,100.00
2023-02-14T04:08:30.118Z,100.00
2023-02-14T04:11:00.810Z,100.00
2023-02-14T04:13:28.215Z,100.00
2023-02-14T04:15:55.327Z,100.00
2023-02-14T04:18:41.103Z,100.00
2023-02-14T04:21:16.528Z,100.00
2023-02-14T04:23:43.712Z,100.00
2023-02-14T04:26:13.869Z,100.00
2023-02-14T04:28:40.857Z,100.00
2023-02-14T04:31:07.965Z,100.00
2023-02-14T04:33:35.030Z,100.00
2023-02-14T04:36:02.083Z,100.00
2023-02-14T04:38:29.416Z,100.00
2023-02-14T04:40:56.268Z,100.00
2023-02-14T04:43:23.299Z,100.00
2023-02-14T04:45:50.079Z,100.00
2023-02-14T04:48:17.095Z,100.00
2023-02-14T04:50:44.022Z,100.00
2023-02-14T04:53:11.031Z,100.00
2023-02-14T04:55:40.045Z,100.00
2023-02-14T04:58:09.545Z,100.00
2023-02-14T05:00:36.577Z,100.00
2023-02-14T05:03:03.658Z,100.00
2023-02-14T05:05:30.579Z,100.00
2023-02-14T05:07:57.544Z,100.00
2023-02-14T05:10:24.566Z,100.00
2023-02-14T05:12:51.431Z,100.00
2023-02-14T05:15:18.579Z,100.00
2023-02-14T05:17:45.451Z,100.00
2023-02-14T05:20:12.486Z,100.00
2023-02-14T05:22:39.343Z,100.00
2023-02-14T05:25:06.794Z,100.00
2023-02-14T05:27:33.860Z,100.00
2023-02-14T05:30:00.690Z,100.00
2023-02-14T05:32:27.609Z,100.00
2023-02-14T05:34:54.542Z,100.00
2023-02-14T05:37:21.611Z,100.00
2023-02-14T05:39:48.638Z,100.00
2023-02-14T05:42:15.408Z,100.00
2023-02-14T05:44:42.653Z,100.00
2023-02-14T05:47:11.048Z,100.00
2023-02-14T05:49:39.750Z,100.00
2023-02-14T05:52:06.945Z,100.00
2023-02-14T05:54:33.975Z,100.00
2023-02-14T05:57:00.843Z,100.00
2023-02-14T05:59:27.655Z,100.00
2023-02-14T06:01:54.675Z,100.00
2023-02-14T06:04:21.739Z,100.00
2023-02-14T06:06:48.600Z,100.00
2023-02-14T06:09:15.523Z,100.00
2023-02-14T06:11:42.400Z,100.00
2023-02-14T06:14:09.365Z,100.00
2023-02-14T06:16:36.681Z,100.00
2023-02-14T06:19:03.823Z,100.00
2023-02-14T06:21:30.724Z,100.00
2023-02-14T06:23:57.912Z,100.00
2023-02-14T06:26:28.086Z,100.00
2023-02-14T06:28:59.383Z,100.00
2023-02-14T06:31:26.729Z,100.00
2023-02-14T06:33:54.086Z,100.00
2023-02-14T06:36:22.028Z,100.00
2023-02-14T06:38:49.553Z,100.00
2023-02-14T06:41:19.770Z,100.00
2023-02-14T06:43:50.400Z,100.00
2023-02-14T06:46:18.865Z,100.00
2023-02-14T06:48:46.080Z,100.00
2023-02-14T06:51:13.771Z,100.00
2023-02-14T06:53:40.826Z,100.00
2023-02-14T06:56:08.085Z,100.00
2023-02-14T06:58:39.728Z,100.00
2023-02-14T07:01:06.855Z,100.00
2023-02-14T07:03:33.918Z,100.00
2023-02-14T07:06:00.988Z,100.00
2023-02-14T07:08:28.208Z,100.00
2023-02-14T07:10:59.450Z,100.00
2023-02-14T07:13:27.117Z,100.00
2023-02-14T07:15:54.229Z,100.00
2023-02-14T07:18:21.394Z,100.00
2023-02-14T07:20:50.174Z,100.00
2023-02-14T07:23:17.131Z,100.00
2023-02-14T07:25:44.186Z,100.00
2023-02-14T07:28:11.345Z,100.00
2023-02-14T07:30:38.233Z,100.00
2023-02-14T07:33:05.260Z,100.00
2023-02-14T07:35:32.210Z,100.00
2023-02-14T07:37:59.397Z,100.00
2023-02-14T07:40:26.362Z,100.00
2023-02-14T07:42:55.069Z,100.00
2023-02-14T07:45:22.935Z,100.00
2023-02-14T07:47:52.055Z,100.00
2023-02-14T07:50:20.076Z,100.00
2023-02-14T07:52:47.348Z,100.00
2023-02-14T07:55:14.784Z,100.00
2023-02-14T07:57:41.623Z,100.00
2023-02-14T08:00:09.428Z,100.00
2023-02-14T08:02:36.318Z,100.00
2023-02-14T08:05:03.413Z,100.00
2023-02-14T08:07:30.381Z,100.00
2023-02-14T08:09:57.260Z,100.00
2023-02-14T08:12:42.546Z,100.00
2023-02-14T08:15:27.859Z,100.00
2023-02-14T08:17:56.784Z,100.00
2023-02-14T08:20:23.748Z,100.00
2023-02-14T08:22:50.568Z,100.00
2023-02-14T08:25:17.628Z,100.00
2023-02-14T08:27:44.558Z,100.00
2023-02-14T08:30:12.164Z,100.00
2023-02-14T08:32:39.748Z,100.00
2023-02-14T08:35:07.321Z,100.00
2023-02-14T08:37:36.650Z,100.00
2023-02-14T08:40:03.806Z,100.00
2023-02-14T08:42:31.338Z,100.00
2023-02-14T08:44:58.270Z,100.00
2023-02-14T08:47:25.387Z,100.00
2023-02-14T08:49:53.790Z,100.00
2023-02-14T08:52:20.738Z,100.00
2023-02-14T08:54:47.502Z,100.00
2023-02-14T08:57:15.836Z,100.00
2023-02-14T08:59:42.959Z,100.00
2023-02-14T09:02:13.793Z,100.00
2023-02-14T09:04:40.893Z,100.00
2023-02-14T09:07:08.300Z,100.00
2023-02-14T09:09:37.832Z,100.00
2023-02-14T09:12:07.242Z,100.00
2023-02-14T09:14:39.300Z,100.00
2023-02-14T09:17:06.908Z,100.00
2023-02-14T09:19:34.790Z,100.00
2023-02-14T09:22:04.192Z,97.06
2023-02-14T09:24:32.622Z,97.22
2023-02-14T09:27:00.134Z,97.36
2023-02-14T09:29:28.305Z,98.49
2023-02-14T09:31:57.271Z,95.82
2023-02-14T09:34:24.434Z,96.74
2023-02-14T09:37:10.219Z,98.08
2023-02-14T09:39:39.181Z,98.96
2023-02-14T09:42:38.970Z,97.98
2023-02-14T09:45:22.821Z,93.24
2023-02-14T09:47:54.410Z,85.16
2023-02-14T09:50:30.701Z,87.92
2023-02-14T09:53:03.057Z,93.44
2023-02-14T09:55:39.794Z,95.32
2023-02-14T09:58:19.909Z,97.25
2023-02-14T10:00:56.450Z,94.25
2023-02-14T10:03:54.596Z,88.11
2023-02-14T10:06:48.102Z,81.61
2023-02-14T10:09:38.777Z,80.11
2023-02-14T10:12:14.637Z,80.04
2023-02-14T10:14:41.992Z,71.52
2023-02-14T10:17:14.230Z,66.14
2023-02-14T10:19:51.910Z,71.45
2023-02-14T10:22:29.027Z,77.07
2023-02-14T10:25:04.948Z,75.77
2023-02-14T10:27:40.497Z,75.71
2023-02-14T10:30:13.702Z,77.53
2023-02-14T10:33:04.969Z,78.38
2023-02-14T10:35:48.938Z,81.90
2023-02-14T10:38:48.973Z,85.07
2023-02-14T10:41:23.933Z,87.30
2023-02-14T10:44:24.146Z,88.26
2023-02-14T10:46:54.180Z,89.05
2023-02-14T10:49:46.296Z,90.96
2023-02-14T10:52:24.332Z,93.18
2023-02-14T10:54:56.242Z,93.80
2023-02-14T10:57:36.703Z,93.91
2023-02-14T11:00:07.677Z,92.88
2023-02-14T11:02:44.059Z,91.35
2023-02-14T11:05:46.537Z,92.58
2023-02-14T11:08:39.007Z,92.67
2023-02-14T11:11:22.482Z,90.79
2023-02-14T11:13:49.499Z,89.52
2023-02-14T11:16:32.765Z,90.29
2023-02-14T11:19:14.491Z,91.15
2023-02-14T11:21:44.499Z,88.84
2023-02-14T11:24:31.679Z,89.48
2023-02-14T11:27:02.787Z,87.76
2023-02-14T11:29:53.196Z,88.95
2023-02-14T11:32:32.003Z,92.01
2023-02-14T11:35:01.689Z,89.97
2023-02-14T11:37:39.973Z,89.78
2023-02-14T11:40:08.058Z,90.35
2023-02-14T11:42:43.055Z,94.07
2023-02-14T11:45:35.912Z,92.27
2023-02-14T11:48:37.371Z,91.41
2023-02-14T11:51:06.778Z,92.73
2023-02-14T11:53:47.394Z,91.75
2023-02-14T11:56:17.775Z,91.96
2023-02-14T11:58:56.776Z,91.59
2023-02-14T12:01:29.221Z,92.37
2023-02-14T12:04:00.215Z,91.62
2023-02-14T12:06:30.688Z,93.16
2023-02-14T12:09:35.417Z,90.55
2023-02-14T12:12:15.312Z,88.56
2023-02-14T12:14:42.272Z,89.24
2023-02-14T12:17:11.915Z,91.55
2023-02-14T12:20:03.018Z,91.37
2023-02-14T12:22:57.923Z,90.00
2023-02-14T12:25:30.325Z,89.40
2023-02-14T12:28:07.764Z,88.52
2023-02-14T12:30:35.792Z,90.50
2023-02-14T12:33:05.405Z,89.52
2023-02-14T12:35:52.602Z,89.68
2023-02-14T12:38:41.275Z,89.01
2023-02-14T12:41:23.200Z,88.87
2023-02-14T12:43:55.555Z,89.02
2023-02-14T12:46:52.086Z,89.53
2023-02-14T12:49:37.970Z,88.97
2023-02-14T12:52:14.372Z,87.89
2023-02-14T12:55:10.168Z,88.13
2023-02-14T12:58:18.586Z,89.57
2023-02-14T13:01:09.527Z,91.14
2023-02-14T13:03:44.441Z,89.80
2023-02-14T13:06:28.283Z,90.88
2023-02-14T13:09:13.705Z,91.24
2023-02-14T13:11:55.703Z,89.85
2023-02-14T13:14:51.756Z,90.22
2023-02-14T13:17:34.956Z,89.88
2023-02-14T13:20:48.425Z,91.15
2023-02-14T13:23:21.256Z,90.87
2023-02-14T13:25:58.089Z,89.88
2023-02-14T13:28:27.470Z,90.12
2023-02-14T13:30:56.283Z,90.05
2023-02-14T13:33:38.366Z,90.80
2023-02-14T13:36:14.134Z,91.14
2023-02-14T13:38:52.417Z,90.72
2023-02-14T13:41:21.210Z,90.79
2023-02-14T13:44:08.575Z,91.40
2023-02-14T13:46:36.253Z,91.96
2023-02-14T13:49:24.220Z,91.34
2023-02-14T13:51:57.751Z,91.16
2023-02-14T13:54:49.030Z,91.15
2023-02-14T13:57:36.881Z,92.66
2023-02-14T14:00:19.133Z,93.21
2023-02-14T14:02:48.458Z,91.65
2023-02-14T14:05:30.818Z,91.98
2023-02-14T14:08:28.800Z,92.65
2023-02-14T14:11:02.341Z,91.81
2023-02-14T14:13:41.562Z,92.42
2023-02-14T14:16:36.773Z,91.79
2023-02-14T14:19:29.327Z,92.83
2023-02-14T14:22:15.177Z,93.52
2023-02-14T14:24:53.616Z,92.84
2023-02-14T14:27:24.943Z,93.70
2023-02-14T14:29:55.681Z,93.88
2023-02-14T14:32:37.518Z,93.51
2023-02-14T14:35:25.031Z,94.11
2023-02-14T14:37:57.204Z,93.70
2023-02-14T14:40:27.510Z,94.44
2023-02-14T14:42:58.695Z,93.31
2023-02-14T14:45:28.559Z,94.20
2023-02-14T14:48:08.699Z,93.80
2023-02-14T14:50:36.853Z,94.56
2023-02-14T14:53:21.782Z,95.13
2023-02-14T14:55:52.283Z,95.38
2023-02-14T14:58:36.093Z,95.44
2023-02-14T15:01:04.454Z,95.48
2023-02-14T15:03:34.036Z,95.94
2023-02-14T15:06:17.928Z,96.23
2023-02-14T15:08:45.519Z,95.82
2023-02-14T15:11:50.712Z,95.70
2023-02-14T15:14:21.532Z,95.50
2023-02-14T15:16:57.922Z,96.32
2023-02-14T15:19:41.439Z,96.81
2023-02-14T15:22:34.062Z,97.24
2023-02-14T15:25:01.022Z,98.03
2023-02-14T15:27:31.196Z,98.65
2023-02-14T15:30:01.240Z,99.05
2023-02-14T15:32:38.515Z,99.12
2023-02-14T15:35:07.027Z,99.92
2023-02-14T15:37:34.809Z,100.00
2023-02-14T15:40:02.628Z,100.00
2023-02-14T15:42:34.877Z,100.00
2023-02-14T15:45:24.480Z,100.00
2023-02-14T15:47:54.663Z,100.00
2023-02-14T15:50:26.619Z,100.00
2023-02-14T15:53:05.675Z,100.00
2023-02-14T15:55:33.833Z,100.00
2023-02-14T15:58:07.326Z,100.00
2023-02-14T16:00:35.878Z,100.00
2023-02-14T16:03:06.615Z,100.00
2023-02-14T16:05:33.722Z,100.00
2023-02-14T16:08:06.479Z,100.00
2023-02-14T16:10:35.296Z,100.00
2023-02-14T16:13:06.936Z,100.00
2023-02-14T16:15:39.058Z,100.00
2023-02-14T16:18:18.936Z,100.00
2023-02-14T16:20:49.023Z,100.00
2023-02-14T16:23:16.008Z,100.00
2023-02-14T16:25:42.885Z,100.00
2023-02-14T16:28:10.109Z,100.00
2023-02-14T16:30:39.585Z,100.00
2023-02-14T16:33:11.483Z,100.00
2023-02-14T16:35:40.578Z,100.00
2023-02-14T16:38:15.819Z,100.00
2023-02-14T16:40:52.737Z,100.00
2023-02-14T16:43:21.180Z,100.00
2023-02-14T16:45:48.784Z,100.00
2023-02-14T16:48:18.626Z,100.00
2023-02-14T16:50:46.474Z,100.00
2023-02-14T16:53:24.280Z,100.00
2023-02-14T16:55:53.623Z,100.00
2023-02-14T16:58:23.342Z,100.00
2023-02-14T17:00:50.378Z,100.00
2023-02-14T17:03:17.368Z,100.00
2023-02-14T17:05:44.621Z,100.00
2023-02-14T17:08:13.854Z,100.00
2023-02-14T17:10:43.652Z,100.00
2023-02-14T17:13:11.793Z,100.00
2023-02-14T17:15:40.070Z,100.00
2023-02-14T17:18:13.146Z,100.00
2023-02-14T17:20:40.733Z,100.00
2023-02-14T17:23:07.701Z,100.00
2023-02-14T17:25:35.502Z,100.00
2023-02-14T17:28:02.383Z,100.00
2023-02-14T17:30:29.554Z,100.00
2023-02-14T17:32:56.597Z,100.00
2023-02-14T17:35:29.047Z,100.00
2023-02-14T17:37:55.828Z,100.00
2023-02-14T17:40:22.883Z,100.00
2023-02-14T17:42:49.854Z,100.00
2023-02-14T17:45:16.766Z,100.00
2023-02-14T17:47:47.193Z,100.00
2023-02-14T17:50:15.973Z,100.00
2023-02-14T17:52:43.085Z,100.00
2023-02-14T17:55:10.101Z,100.00
2023-02-14T17:57:39.347Z,100.00
2023-02-14T18:00:07.223Z,100.00
2023-02-14T18:02:34.427Z,100.00
2023-02-14T18:05:01.552Z,100.00
2023-02-14T18:07:29.168Z,100.00
2023-02-14T18:09:58.774Z,100.00
2023-02-14T18:12:25.882Z,100.00
2023-02-14T18:14:53.741Z,100.00
2023-02-14T18:17:20.751Z,100.00
2023-02-14T18:19:52.932Z,100.00
2023-02-14T18:22:20.305Z,100.00
2023-02-14T18:24:47.310Z,100.00
2023-02-14T18:27:16.247Z,100.00
2023-02-14T18:29:43.105Z,100.00
2023-02-14T18:32:12.933Z,100.00
2023-02-14T18:34:39.790Z,100.00
2023-02-14T18:37:06.680Z,100.00
2023-02-14T18:39:34.032Z,100.00
2023-02-14T18:42:01.693Z,100.00
2023-02-14T18:44:29.546Z,100.00
2023-02-14T18:46:56.583Z,100.00
2023-02-14T18:49:26.273Z,100.00
2023-02-14T18:51:53.700Z,100.00
2023-02-14T18:54:20.766Z,100.00
2023-02-14T18:56:50.990Z,100.00
2023-02-14T18:59:18.193Z,100.00
2023-02-14T19:01:46.024Z,100.00
2023-02-14T19:04:13.687Z,100.00
2023-02-14T19:06:42.184Z,100.00
2023-02-14T19:09:16.337Z,100.00
2023-02-14T19:11:43.883Z,100.00
2023-02-14T19:14:12.801Z,100.00
2023-02-14T19:16:44.301Z,100.00
2023-02-14T19:19:11.645Z,100.00
2023-02-14T19:21:38.948Z,100.00
2023-02-14T19:24:07.236Z,100.00
2023-02-14T19:26:40.426Z,100.00
2023-02-14T19:29:11.793Z,100.00
2023-02-14T19:31:41.798Z,100.00
2023-02-14T19:34:17.046Z,100.00
2023-02-14T19:36:44.368Z,100.00
2023-02-14T19:39:12.940Z,100.00
2023-02-14T19:41:40.459Z,100.00
2023-02-14T19:44:09.724Z,100.00
2023-02-14T19:46:38.376Z,100.00
2023-02-14T19:49:05.770Z,100.00
2023-02-14T19:51:36.189Z,100.00
2023-02-14T19:54:07.252Z,100.00
2023-02-14T19:56:45.275Z,100.00
2023-02-14T19:59:16.696Z,100.00
2023-02-14T20:01:48.999Z,100.00
2023-02-14T20:04:19.851Z,100.00
2023-02-14T20:06:47.082Z,100.00
2023-02-14T20:09:15.152Z,100.00
2023-02-14T20:11:51.639Z,100.00
2023-02-14T20:14:26.938Z,100.00
2023-02-14T20:16:55.667Z,100.00
2023-02-14T20:19:27.147Z,100.00
2023-02-14T20:21:54.230Z,100.00
2023-02-14T20:24:26.698Z,100.00
2023-02-14T20:26:54.064Z,100.00
2023-02-14T20:29:22.839Z,100.00
2023-02-14T20:31:55.953Z,100.00
2023-02-14T20:34:23.080Z,100.00
2023-02-14T20:36:53.351Z,100.00
2023-02-14T20:39:23.738Z,100.00
2023-02-14T20:41:52.556Z,100.00
2023-02-14T20:44:21.818Z,100.00
2023-02-14T20:46:51.929Z,100.00
2023-02-14T20:49:20.367Z,100.00
2023-02-14T20:51:49.806Z,100.00
2023-02-14T20:54:21.029Z,100.00
2023-02-14T20:56:48.657Z,100.00
2023-02-14T20:59:15.526Z,100.00
2023-02-14T21:01:43.024Z,100.00
2023-02-14T21:04:09.958Z,100.00
2023-02-14T21:06:39.633Z,100.00
2023-02-14T21:09:06.898Z,100.00
2023-02-14T21:11:33.727Z,100.00
2023-02-14T21:14:01.850Z,100.00
2023-02-14T21:16:30.422Z,100.00
2023-02-14T21:19:01.618Z,100.00
2023-02-14T21:21:36.747Z,100.00
2023-02-14T21:24:06.649Z,100.00
2023-02-14T21:26:33.604Z,100.00
2023-02-14T21:29:01.846Z,100.00
2023-02-14T21:31:29.005Z,100.00
2023-02-14T21:33:58.483Z,100.00
2023-02-14T21:36:27.601Z,100.00
2023-02-14T21:38:59.159Z,100.00
2023-02-14T21:41:29.284Z,100.00
2023-02-14T21:43:57.621Z,100.00
2023-02-14T21:46:31.284Z,100.00
2023-02-14T21:49:21.995Z,100.00
2023-02-14T21:51:49.457Z,100.00
2023-02-14T21:54:16.808Z,100.00
2023-02-14T21:56:44.312Z,100.00
2023-02-14T21:59:11.819Z,100.00
2023-02-14T22:01:41.431Z,100.00
2023-02-14T22:04:10.931Z,100.00
2023-02-14T22:06:40.109Z,100.00
2023-02-14T22:09:08.052Z,100.00
2023-02-14T22:11:35.661Z,100.00
2023-02-14T22:14:02.638Z,100.00
2023-02-14T22:16:29.601Z,100.00
2023-02-14T22:18:56.598Z,100.00
2023-02-14T22:21:25.416Z,100.00
2023-02-14T22:23:53.338Z,100.00
2023-02-14T22:26:28.989Z,100.00
2023-02-14T22:28:59.370Z,100.00
2023-02-14T22:31:29.597Z,100.00
2023-02-14T22:33:56.696Z,100.00
2023-02-14T22:36:23.626Z,100.00
2023-02-14T22:38:50.666Z,100.00
2023-02-14T22:41:25.440Z,100.00
2023-02-14T22:43:55.752Z,100.00
2023-02-14T22:46:26.012Z,100.00
2023-02-14T22:48:54.295Z,100.00
2023-02-14T22:51:27.227Z,100.00
2023-02-14T22:54:00.700Z,100.00
2023-02-14T22:56:34.604Z,100.00
2023-02-14T22:59:07.340Z,100.00
2023-02-14T23:01:35.993Z,100.00
2023-02-14T23:04:03.887Z,100.00
2023-02-14T23:06:33.330Z,100.00
2023-02-14T23:09:00.961Z,100.00
2023-02-14T23:11:33.169Z,100.00
2023-02-14T23:14:19.124Z,100.00
2023-02-14T23:17:05.173Z,100.00
2023-02-14T23:19:53.063Z,100.00
2023-02-14T23:22:40.648Z,100.00
2023-02-14T23:25:10.641Z,100.00
2023-02-14T23:27:43.692Z,100.00
2023-02-14T23:30:14.981Z,100.00
2023-02-14T23:32:42.454Z,100.00
2023-02-14T23:35:09.373Z,100.00
2023-02-14T23:37:36.197Z,100.00
2023-02-14T23:40:04.145Z,100.00
2023-02-14T23:42:31.162Z,100.00
2023-02-14T23:45:18.101Z,100.00
2023-02-14T23:47:45.123Z,100.00
2023-02-14T23:50:15.040Z,100.00
2023-02-14T23:52:42.511Z,100.00
2023-02-14T23:55:09.630Z,100.00
2023-02-14T23:57:37.188Z,100.00
